sensor_id;sensor_type;location;lat;lon;timestamp;temperature;humidity
13091;DHT22;6611;52.604;13.438;2023-11-19T00:00:20;4.78;83.96
13091;DHT22;6611;52.604;13.438;2023-11-19T00:05:22;4.74;83.95
13091;DHT22;6611;52.604;13.438;2023-11-19T00:10:23;4.63;84.21
13091;DHT22;6611;52.604;13.438;2023-11-19T00:15:26;4.48;84.84
13091;DHT22;6611;52.604;13.438;2023-11-19T00:20:28;4.59;84.48
13091;DHT22;6611;52.604;13.438;2023-11-19T00:25:30;4.54;84.72
13091;DHT22;6611;52.604;13.438;2023-11-19T00:30:33;4.74;83.87
13091;DHT22;6611;52.604;13.438;2023-11-19T00:35:35;4.68;84.15
13091;DHT22;6611;52.604;13.438;2023-11-19T00:40:36;4.71;84.25
13091;DHT22;6611;52.604;13.438;2023-11-19T00:45:39;4.71;83.86
13091;DHT22;6611;52.604;13.438;2023-11-19T00:50:41;4.61;83.75
13091;DHT22;6611;52.604;13.438;2023-11-19T00:55:45;4.67;83.77
13091;DHT22;6611;52.604;13.438;2023-11-19T01:00:49;4.67;83.43
13091;DHT22;6611;52.604;13.438;2023-11-19T01:05:50;4.63;83.57
13091;DHT22;6611;52.604;13.438;2023-11-19T01:10:52;4.61;84.13
13091;DHT22;6611;52.604;13.438;2023-11-19T01:15:55;4.68;83.46
13091;DHT22;6611;52.604;13.438;2023-11-19T01:20:57;4.56;83.11
13091;DHT22;6611;52.604;13.438;2023-11-19T01:25:59;4.66;82.89
13091;DHT22;6611;52.604;13.438;2023-11-19T01:31:02;4.57;82.70
13091;DHT22;6611;52.604;13.438;2023-11-19T01:36:05;4.68;82.96
13091;DHT22;6611;52.604;13.438;2023-11-19T01:41:07;4.71;82.40
13091;DHT22;6611;52.604;13.438;2023-11-19T01:46:10;4.78;82.69
13091;DHT22;6611;52.604;13.438;2023-11-19T01:51:12;4.70;82.53
13091;DHT22;6611;52.604;13.438;2023-11-19T01:56:16;4.81;82.19
13091;DHT22;6611;52.604;13.438;2023-11-19T02:01:20;4.83;82.20
13091;DHT22;6611;52.604;13.438;2023-11-19T02:06:22;4.94;81.36
13091;DHT22;6611;52.604;13.438;2023-11-19T02:11:24;4.95;81.50
13091;DHT22;6611;52.604;13.438;2023-11-19T02:16:31;4.83;81.89
13091;DHT22;6611;52.604;13.438;2023-11-19T02:21:32;4.95;81.85
13091;DHT22;6611;52.604;13.438;2023-11-19T02:26:39;4.92;81.78
13091;DHT22;6611;52.604;13.438;2023-11-19T02:31:42;4.89;81.89
13091;DHT22;6611;52.604;13.438;2023-11-19T02:36:44;4.92;82.21
13091;DHT22;6611;52.604;13.438;2023-11-19T02:41:47;4.98;81.76
13091;DHT22;6611;52.604;13.438;2023-11-19T02:46:52;4.95;81.63
13091;DHT22;6611;52.604;13.438;2023-11-19T02:51:54;5.02;81.89
13091;DHT22;6611;52.604;13.438;2023-11-19T02:56:55;5.04;81.85
13091;DHT22;6611;52.604;13.438;2023-11-19T03:02:01;5.07;81.44
13091;DHT22;6611;52.604;13.438;2023-11-19T03:07:03;5.11;81.70
13091;DHT22;6611;52.604;13.438;2023-11-19T03:12:05;5.12;81.29
13091;DHT22;6611;52.604;13.438;2023-11-19T03:17:08;5.16;81.72
13091;DHT22;6611;52.604;13.438;2023-11-19T03:22:10;5.32;81.27
13091;DHT22;6611;52.604;13.438;2023-11-19T03:27:12;5.30;81.28
13091;DHT22;6611;52.604;13.438;2023-11-19T03:32:15;5.26;81.97
13091;DHT22;6611;52.604;13.438;2023-11-19T03:37:17;5.28;82.99
13091;DHT22;6611;52.604;13.438;2023-11-19T03:42:19;5.29;84.21
13091;DHT22;6611;52.604;13.438;2023-11-19T03:47:22;5.04;85.40
13091;DHT22;6611;52.604;13.438;2023-11-19T03:52:24;4.96;86.43
13091;DHT22;6611;52.604;13.438;2023-11-19T03:57:27;4.96;86.87
13091;DHT22;6611;52.604;13.438;2023-11-19T04:02:30;4.98;87.37
13091;DHT22;6611;52.604;13.438;2023-11-19T04:07:31;4.91;87.77
13091;DHT22;6611;52.604;13.438;2023-11-19T04:12:33;4.83;87.97
13091;DHT22;6611;52.604;13.438;2023-11-19T04:17:36;4.78;88.91
13091;DHT22;6611;52.604;13.438;2023-11-19T04:22:38;4.81;88.88
13091;DHT22;6611;52.604;13.438;2023-11-19T04:27:39;4.77;88.98
13091;DHT22;6611;52.604;13.438;2023-11-19T04:32:42;4.83;89.07
13091;DHT22;6611;52.604;13.438;2023-11-19T04:37:44;4.89;88.85
13091;DHT22;6611;52.604;13.438;2023-11-19T04:42:46;4.88;88.78
13091;DHT22;6611;52.604;13.438;2023-11-19T04:47:49;4.88;89.14
13091;DHT22;6611;52.604;13.438;2023-11-19T04:52:50;4.91;89.22
13091;DHT22;6611;52.604;13.438;2023-11-19T04:57:54;4.87;89.39
13091;DHT22;6611;52.604;13.438;2023-11-19T05:02:57;4.71;89.95
13091;DHT22;6611;52.604;13.438;2023-11-19T05:07:58;4.83;89.45
13091;DHT22;6611;52.604;13.438;2023-11-19T05:13:00;4.87;89.87
13091;DHT22;6611;52.604;13.438;2023-11-19T05:18:03;4.84;90.00
13091;DHT22;6611;52.604;13.438;2023-11-19T05:23:05;4.84;90.25
13091;DHT22;6611;52.604;13.438;2023-11-19T05:28:07;4.83;90.43
13091;DHT22;6611;52.604;13.438;2023-11-19T05:33:10;4.80;90.53
13091;DHT22;6611;52.604;13.438;2023-11-19T05:38:11;4.71;91.17
13091;DHT22;6611;52.604;13.438;2023-11-19T05:43:13;4.77;91.23
13091;DHT22;6611;52.604;13.438;2023-11-19T05:48:16;4.83;90.94
13091;DHT22;6611;52.604;13.438;2023-11-19T05:53:18;4.91;90.80
13091;DHT22;6611;52.604;13.438;2023-11-19T05:58:20;4.89;90.81
13091;DHT22;6611;52.604;13.438;2023-11-19T06:03:23;4.92;90.78
13091;DHT22;6611;52.604;13.438;2023-11-19T06:08:25;4.87;91.25
13091;DHT22;6611;52.604;13.438;2023-11-19T06:13:27;4.96;91.32
13091;DHT22;6611;52.604;13.438;2023-11-19T06:18:32;4.98;91.28
13091;DHT22;6611;52.604;13.438;2023-11-19T06:23:34;5.05;90.99
13091;DHT22;6611;52.604;13.438;2023-11-19T06:28:36;5.08;91.14
13091;DHT22;6611;52.604;13.438;2023-11-19T06:33:39;5.16;90.81
13091;DHT22;6611;52.604;13.438;2023-11-19T06:38:41;5.23;90.60
13091;DHT22;6611;52.604;13.438;2023-11-19T06:43:42;5.16;91.11
13091;DHT22;6611;52.604;13.438;2023-11-19T06:48:46;5.16;91.41
13091;DHT22;6611;52.604;13.438;2023-11-19T06:53:47;5.20;91.52
13091;DHT22;6611;52.604;13.438;2023-11-19T06:58:49;5.22;91.58
13091;DHT22;6611;52.604;13.438;2023-11-19T07:03:53;5.28;91.66
13091;DHT22;6611;52.604;13.438;2023-11-19T07:08:58;5.30;91.54
13091;DHT22;6611;52.604;13.438;2023-11-19T07:13:59;5.36;91.45
13091;DHT22;6611;52.604;13.438;2023-11-19T07:19:03;5.51;91.50
13091;DHT22;6611;52.604;13.438;2023-11-19T07:24:06;5.51;91.40
13091;DHT22;6611;52.604;13.438;2023-11-19T07:29:07;5.56;91.51
13091;DHT22;6611;52.604;13.438;2023-11-19T07:34:10;5.54;91.14
13091;DHT22;6611;52.604;13.438;2023-11-19T07:39:12;5.53;91.68
13091;DHT22;6611;52.604;13.438;2023-11-19T07:44:14;5.58;91.61
13091;DHT22;6611;52.604;13.438;2023-11-19T07:49:17;5.57;91.97
13091;DHT22;6611;52.604;13.438;2023-11-19T07:54:18;5.64;91.78
13091;DHT22;6611;52.604;13.438;2023-11-19T07:59:21;5.78;91.50
13091;DHT22;6611;52.604;13.438;2023-11-19T08:04:24;5.75;91.60
13091;DHT22;6611;52.604;13.438;2023-11-19T08:09:26;5.68;92.24
13091;DHT22;6611;52.604;13.438;2023-11-19T08:14:28;5.78;92.22
13091;DHT22;6611;52.604;13.438;2023-11-19T08:19:31;5.84;92.03
13091;DHT22;6611;52.604;13.438;2023-11-19T08:24:32;5.88;92.02
13091;DHT22;6611;52.604;13.438;2023-11-19T08:29:34;6.03;91.86
13091;DHT22;6611;52.604;13.438;2023-11-19T08:34:37;6.08;91.85
13091;DHT22;6611;52.604;13.438;2023-11-19T08:39:39;6.20;91.96
13091;DHT22;6611;52.604;13.438;2023-11-19T08:44:42;6.29;91.67
13091;DHT22;6611;52.604;13.438;2023-11-19T08:49:50;6.36;91.91
13091;DHT22;6611;52.604;13.438;2023-11-19T08:54:52;6.44;92.19
13091;DHT22;6611;52.604;13.438;2023-11-19T08:59:53;6.75;92.46
13091;DHT22;6611;52.604;13.438;2023-11-19T09:04:56;6.96;92.34
13091;DHT22;6611;52.604;13.438;2023-11-19T09:09:58;7.12;91.98
13091;DHT22;6611;52.604;13.438;2023-11-19T09:15:00;7.13;92.10
13091;DHT22;6611;52.604;13.438;2023-11-19T09:20:05;7.19;91.96
13091;DHT22;6611;52.604;13.438;2023-11-19T09:25:08;7.41;92.16
13091;DHT22;6611;52.604;13.438;2023-11-19T09:30:10;7.65;92.06
13091;DHT22;6611;52.604;13.438;2023-11-19T09:35:14;7.97;91.70
13091;DHT22;6611;52.604;13.438;2023-11-19T09:40:16;8.21;91.10
13091;DHT22;6611;52.604;13.438;2023-11-19T09:45:21;8.26;91.07
13091;DHT22;6611;52.604;13.438;2023-11-19T09:50:24;8.48;91.30
13091;DHT22;6611;52.604;13.438;2023-11-19T09:55:25;8.80;91.03
13091;DHT22;6611;52.604;13.438;2023-11-19T10:00:27;8.80;91.03
13091;DHT22;6611;52.604;13.438;2023-11-19T10:05:30;8.94;90.83
13091;DHT22;6611;52.604;13.438;2023-11-19T10:10:32;9.03;91.09
13091;DHT22;6611;52.604;13.438;2023-11-19T10:15:36;9.30;91.28
13091;DHT22;6611;52.604;13.438;2023-11-19T10:20:41;9.56;91.12
13091;DHT22;6611;52.604;13.438;2023-11-19T10:25:44;9.71;91.22
13091;DHT22;6611;52.604;13.438;2023-11-19T10:30:48;9.80;90.37
13091;DHT22;6611;52.604;13.438;2023-11-19T10:35:55;9.87;90.46
13091;DHT22;6611;52.604;13.438;2023-11-19T10:40:57;9.97;90.63
13091;DHT22;6611;52.604;13.438;2023-11-19T10:46:09;10.04;90.40
13091;DHT22;6611;52.604;13.438;2023-11-19T10:51:13;10.14;90.44
13091;DHT22;6611;52.604;13.438;2023-11-19T10:56:25;10.11;90.62
13091;DHT22;6611;52.604;13.438;2023-11-19T11:01:36;10.21;90.70
13091;DHT22;6611;52.604;13.438;2023-11-19T11:06:42;10.41;90.39
13091;DHT22;6611;52.604;13.438;2023-11-19T11:11:46;10.48;90.36
13091;DHT22;6611;52.604;13.438;2023-11-19T11:16:48;10.87;90.21
13091;DHT22;6611;52.604;13.438;2023-11-19T11:21:53;10.99;89.54
13091;DHT22;6611;52.604;13.438;2023-11-19T11:27:22;11.35;88.74
13091;DHT22;6611;52.604;13.438;2023-11-19T11:32:34;11.67;88.88
13091;DHT22;6611;52.604;13.438;2023-11-19T11:37:44;11.98;87.00
13091;DHT22;6611;52.604;13.438;2023-11-19T11:42:48;12.25;86.67
13091;DHT22;6611;52.604;13.438;2023-11-19T11:48:09;12.27;85.55
13091;DHT22;6611;52.604;13.438;2023-11-19T11:53:20;12.11;86.61
13091;DHT22;6611;52.604;13.438;2023-11-19T11:58:27;11.98;85.81
13091;DHT22;6611;52.604;13.438;2023-11-19T12:03:32;11.84;86.45
13091;DHT22;6611;52.604;13.438;2023-11-19T12:08:35;11.72;87.30
13091;DHT22;6611;52.604;13.438;2023-11-19T12:13:47;11.80;86.77
13091;DHT22;6611;52.604;13.438;2023-11-19T12:18:54;11.80;86.13
13091;DHT22;6611;52.604;13.438;2023-11-19T12:23:58;11.66;86.09
13091;DHT22;6611;52.604;13.438;2023-11-19T12:29:04;11.69;85.71
13091;DHT22;6611;52.604;13.438;2023-11-19T12:34:09;11.66;86.05
13091;DHT22;6611;52.604;13.438;2023-11-19T12:39:13;11.58;86.30
13091;DHT22;6611;52.604;13.438;2023-11-19T12:44:15;11.52;87.23
13091;DHT22;6611;52.604;13.438;2023-11-19T12:49:16;11.55;86.98
13091;DHT22;6611;52.604;13.438;2023-11-19T12:54:19;11.43;87.11
13091;DHT22;6611;52.604;13.438;2023-11-19T12:59:21;11.32;87.23
13091;DHT22;6611;52.604;13.438;2023-11-19T13:04:23;11.34;87.65
13091;DHT22;6611;52.604;13.438;2023-11-19T13:09:30;11.38;87.35
13091;DHT22;6611;52.604;13.438;2023-11-19T13:14:36;11.39;87.20
13091;DHT22;6611;52.604;13.438;2023-11-19T13:19:38;11.45;86.87
13091;DHT22;6611;52.604;13.438;2023-11-19T13:24:41;11.56;85.99
13091;DHT22;6611;52.604;13.438;2023-11-19T13:29:43;11.70;86.06
13091;DHT22;6611;52.604;13.438;2023-11-19T13:34:45;11.98;84.35
13091;DHT22;6611;52.604;13.438;2023-11-19T13:39:47;12.00;83.58
13091;DHT22;6611;52.604;13.438;2023-11-19T13:44:49;11.70;84.75
13091;DHT22;6611;52.604;13.438;2023-11-19T13:49:51;11.49;85.57
13091;DHT22;6611;52.604;13.438;2023-11-19T13:54:54;11.43;84.99
13091;DHT22;6611;52.604;13.438;2023-11-19T13:59:56;11.32;85.41
13091;DHT22;6611;52.604;13.438;2023-11-19T14:04:57;11.32;85.40
13091;DHT22;6611;52.604;13.438;2023-11-19T14:10:01;11.24;85.87
13091;DHT22;6611;52.604;13.438;2023-11-19T14:15:03;11.22;85.24
13091;DHT22;6611;52.604;13.438;2023-11-19T14:20:06;11.14;86.63
13091;DHT22;6611;52.604;13.438;2023-11-19T14:25:14;11.22;85.76
13091;DHT22;6611;52.604;13.438;2023-11-19T14:30:16;11.20;85.35
13091;DHT22;6611;52.604;13.438;2023-11-19T14:35:18;11.14;86.24
13091;DHT22;6611;52.604;13.438;2023-11-19T14:40:21;11.11;86.49
13091;DHT22;6611;52.604;13.438;2023-11-19T14:45:23;11.13;86.08
13091;DHT22;6611;52.604;13.438;2023-11-19T14:50:24;11.14;85.44
13091;DHT22;6611;52.604;13.438;2023-11-19T14:55:27;11.20;85.39
13091;DHT22;6611;52.604;13.438;2023-11-19T15:00:29;11.17;85.18
13091;DHT22;6611;52.604;13.438;2023-11-19T15:05:31;11.13;85.80
13091;DHT22;6611;52.604;13.438;2023-11-19T15:10:34;11.11;86.07
13091;DHT22;6611;52.604;13.438;2023-11-19T15:15:36;11.10;85.53
13091;DHT22;6611;52.604;13.438;2023-11-19T15:20:39;11.06;86.11
13091;DHT22;6611;52.604;13.438;2023-11-19T15:25:42;11.13;85.50
13091;DHT22;6611;52.604;13.438;2023-11-19T15:30:44;11.11;85.45
13091;DHT22;6611;52.604;13.438;2023-11-19T15:35:45;11.11;85.33
13091;DHT22;6611;52.604;13.438;2023-11-19T15:40:49;11.08;85.59
13091;DHT22;6611;52.604;13.438;2023-11-19T15:45:51;11.01;85.74
13091;DHT22;6611;52.604;13.438;2023-11-19T15:50:53;11.04;85.69
13091;DHT22;6611;52.604;13.438;2023-11-19T15:55:56;11.01;85.94
13091;DHT22;6611;52.604;13.438;2023-11-19T16:00:58;11.06;85.37
13091;DHT22;6611;52.604;13.438;2023-11-19T16:06:01;11.00;86.02
13091;DHT22;6611;52.604;13.438;2023-11-19T16:11:05;11.01;85.60
13091;DHT22;6611;52.604;13.438;2023-11-19T16:16:08;10.94;85.96
13091;DHT22;6611;52.604;13.438;2023-11-19T16:21:10;10.90;86.01
13091;DHT22;6611;52.604;13.438;2023-11-19T16:26:13;10.93;86.28
13091;DHT22;6611;52.604;13.438;2023-11-19T16:31:15;10.86;87.08
13091;DHT22;6611;52.604;13.438;2023-11-19T16:36:17;10.80;87.40
13091;DHT22;6611;52.604;13.438;2023-11-19T16:41:21;10.79;87.63
13091;DHT22;6611;52.604;13.438;2023-11-19T16:46:23;10.83;87.42
13091;DHT22;6611;52.604;13.438;2023-11-19T16:51:24;10.76;87.84
13091;DHT22;6611;52.604;13.438;2023-11-19T16:56:27;10.73;87.95
13091;DHT22;6611;52.604;13.438;2023-11-19T17:01:32;10.72;87.92
13091;DHT22;6611;52.604;13.438;2023-11-19T17:06:38;10.72;87.75
13091;DHT22;6611;52.604;13.438;2023-11-19T17:11:41;10.60;87.83
13091;DHT22;6611;52.604;13.438;2023-11-19T17:16:43;10.62;87.66
13091;DHT22;6611;52.604;13.438;2023-11-19T17:21:45;10.68;87.57
13091;DHT22;6611;52.604;13.438;2023-11-19T17:26:48;10.65;87.98
13091;DHT22;6611;52.604;13.438;2023-11-19T17:31:50;10.65;87.89
13091;DHT22;6611;52.604;13.438;2023-11-19T17:36:52;10.68;88.12
13091;DHT22;6611;52.604;13.438;2023-11-19T17:41:55;10.62;88.84
13091;DHT22;6611;52.604;13.438;2023-11-19T17:46:57;10.56;89.21
13091;DHT22;6611;52.604;13.438;2023-11-19T17:51:58;10.56;89.04
13091;DHT22;6611;52.604;13.438;2023-11-19T17:57:01;10.58;89.08
13091;DHT22;6611;52.604;13.438;2023-11-19T18:02:03;10.42;89.73
13091;DHT22;6611;52.604;13.438;2023-11-19T18:07:05;10.32;89.41
13091;DHT22;6611;52.604;13.438;2023-11-19T18:12:08;10.28;89.30
13091;DHT22;6611;52.604;13.438;2023-11-19T18:17:10;10.31;89.13
13091;DHT22;6611;52.604;13.438;2023-11-19T18:22:12;10.24;89.26
13091;DHT22;6611;52.604;13.438;2023-11-19T18:27:15;10.21;88.77
13091;DHT22;6611;52.604;13.438;2023-11-19T18:32:18;10.13;89.22
13091;DHT22;6611;52.604;13.438;2023-11-19T18:37:20;10.07;89.47
13091;DHT22;6611;52.604;13.438;2023-11-19T18:42:23;10.07;89.46
13091;DHT22;6611;52.604;13.438;2023-11-19T18:47:24;10.10;89.18
13091;DHT22;6611;52.604;13.438;2023-11-19T18:52:26;10.01;89.58
13091;DHT22;6611;52.604;13.438;2023-11-19T18:57:29;10.01;89.50
13091;DHT22;6611;52.604;13.438;2023-11-19T19:02:31;10.03;89.44
13091;DHT22;6611;52.604;13.438;2023-11-19T19:07:33;9.97;89.45
13091;DHT22;6611;52.604;13.438;2023-11-19T19:12:36;9.97;89.58
13091;DHT22;6611;52.604;13.438;2023-11-19T19:17:39;9.94;89.77
13091;DHT22;6611;52.604;13.438;2023-11-19T19:22:41;9.91;90.08
13091;DHT22;6611;52.604;13.438;2023-11-19T19:27:44;9.98;89.79
13091;DHT22;6611;52.604;13.438;2023-11-19T19:32:46;10.03;89.63
13091;DHT22;6611;52.604;13.438;2023-11-19T19:37:48;10.07;89.68
13091;DHT22;6611;52.604;13.438;2023-11-19T19:42:51;10.08;89.54
13091;DHT22;6611;52.604;13.438;2023-11-19T19:47:52;10.10;89.56
13091;DHT22;6611;52.604;13.438;2023-11-19T19:52:54;10.10;89.57
13091;DHT22;6611;52.604;13.438;2023-11-19T19:57:58;10.17;89.56
13091;DHT22;6611;52.604;13.438;2023-11-19T20:02:59;10.17;89.40
13091;DHT22;6611;52.604;13.438;2023-11-19T20:08:01;10.21;89.34
13091;DHT22;6611;52.604;13.438;2023-11-19T20:13:04;10.20;89.30
13091;DHT22;6611;52.604;13.438;2023-11-19T20:18:09;10.14;89.77
13091;DHT22;6611;52.604;13.438;2023-11-19T20:23:14;10.14;89.63
13091;DHT22;6611;52.604;13.438;2023-11-19T20:28:17;10.20;89.64
13091;DHT22;6611;52.604;13.438;2023-11-19T20:33:19;10.22;89.30
13091;DHT22;6611;52.604;13.438;2023-11-19T20:38:20;10.20;89.64
13091;DHT22;6611;52.604;13.438;2023-11-19T20:43:23;10.18;90.03
13091;DHT22;6611;52.604;13.438;2023-11-19T20:48:25;10.20;89.81
13091;DHT22;6611;52.604;13.438;2023-11-19T20:53:26;10.27;89.66
13091;DHT22;6611;52.604;13.438;2023-11-19T20:58:29;10.30;89.67
13091;DHT22;6611;52.604;13.438;2023-11-19T21:03:34;10.30;89.69
13091;DHT22;6611;52.604;13.438;2023-11-19T21:08:37;10.32;89.65
13091;DHT22;6611;52.604;13.438;2023-11-19T21:13:40;10.34;89.44
13091;DHT22;6611;52.604;13.438;2023-11-19T21:18:42;10.31;89.37
13091;DHT22;6611;52.604;13.438;2023-11-19T21:23:44;10.31;89.66
13091;DHT22;6611;52.604;13.438;2023-11-19T21:28:47;10.37;89.15
13091;DHT22;6611;52.604;13.438;2023-11-19T21:33:49;10.32;89.13
13091;DHT22;6611;52.604;13.438;2023-11-19T21:38:50;10.22;89.49
13091;DHT22;6611;52.604;13.438;2023-11-19T21:43:54;10.17;89.37
13091;DHT22;6611;52.604;13.438;2023-11-19T21:48:55;10.14;89.79
13091;DHT22;6611;52.604;13.438;2023-11-19T21:53:57;10.17;89.50
13091;DHT22;6611;52.604;13.438;2023-11-19T21:59:01;10.18;89.30
13091;DHT22;6611;52.604;13.438;2023-11-19T22:04:03;10.17;89.09
13091;DHT22;6611;52.604;13.438;2023-11-19T22:09:05;10.10;89.61
13091;DHT22;6611;52.604;13.438;2023-11-19T22:14:09;10.10;89.42
13091;DHT22;6611;52.604;13.438;2023-11-19T22:19:11;10.11;89.47
13091;DHT22;6611;52.604;13.438;2023-11-19T22:24:12;10.08;89.85
13091;DHT22;6611;52.604;13.438;2023-11-19T22:29:15;10.10;89.60
13091;DHT22;6611;52.604;13.438;2023-11-19T22:34:17;10.13;89.31
13091;DHT22;6611;52.604;13.438;2023-11-19T22:39:19;10.20;89.18
13091;DHT22;6611;52.604;13.438;2023-11-19T22:44:22;10.22;89.23
13091;DHT22;6611;52.604;13.438;2023-11-19T22:49:23;10.14;89.58
13091;DHT22;6611;52.604;13.438;2023-11-19T22:54:25;10.20;89.35
13091;DHT22;6611;52.604;13.438;2023-11-19T22:59:28;10.18;89.57
13091;DHT22;6611;52.604;13.438;2023-11-19T23:04:30;10.27;89.28
13091;DHT22;6611;52.604;13.438;2023-11-19T23:09:32;10.27;89.32
13091;DHT22;6611;52.604;13.438;2023-11-19T23:14:35;10.24;89.66
13091;DHT22;6611;52.604;13.438;2023-11-19T23:19:36;10.21;89.69
13091;DHT22;6611;52.604;13.438;2023-11-19T23:24:38;10.22;89.83
13091;DHT22;6611;52.604;13.438;2023-11-19T23:29:41;10.30;89.57
13091;DHT22;6611;52.604;13.438;2023-11-19T23:34:43;10.24;89.93
13091;DHT22;6611;52.604;13.438;2023-11-19T23:39:45;10.28;89.90
13091;DHT22;6611;52.604;13.438;2023-11-19T23:44:48;10.34;89.72
13091;DHT22;6611;52.604;13.438;2023-11-19T23:49:50;10.41;89.61
13091;DHT22;6611;52.604;13.438;2023-11-19T23:54:52;10.32;89.87
13091;DHT22;6611;52.604;13.438;2023-11-19T23:59:55;10.38;89.94
